Hlavní strana
METAR-TAF:

METAR-TAF

Letiště :

Västerås, Švédsko

zeměpisná šířka: 59-35N, zeměpisná délka: 016-38E, výška: 6 m

Aktuální stav počasí

Zpráva byla vytvořena před 25 minutami, v 01:20 UTC
vítr z různých směrů 3 kt
Teplota 8°C
Vlhkost vzduchu 93%
Tlak 1010 hPa
Viditelnost: 1900 m
mrholení

METAR: ESOW 180120Z AUTO VRB03KT 1900 DZ VV004 08/07 Q1010 REUP

Čas: 03:45 (01:45 UTC)

Předpověď počasí

Zpráva byla vytvořena před 17 hodinami a 15 minutami, v 08:30 UTC
Předpověď platná od 17 v 09 UTC do 17 v 13 UTC
Severoseverovýchodní vítr 7 kt
Viditelnost: 9000 m
Oblačno až skoro zataženo ve výšce 700 ft
Pravděpodobnost 40%
od 17 v 09 UTC do 17 v 13 UTC
Viditelnost: 2000 m
Oblačno až skoro zataženo ve výšce 400 ft
mrholení, kouřmo

TAF: ESOW 170830Z 1709/1713 02007KT 9000 BKN007 PROB40 1709/1713 2000 DZ BR BKN004

Stav a předpovědi počasí z více než 4 000 letišť (zprávy METAR a TAF).

Červené a žluté tečky na mapě představují dostupné meteorologické stanice.

Když kurzor umístíte na tečku, zobrazí se název stanice.

Pak kliknutím zobrazíte stav a předpověď počasí.

Chcete-li změnit mapu, kliknutím na zelené tlačítko se znaménkem +mapu přiblížíte, kliknutím na zelené tlačítko se znaménkem – mapu oddálíte a kliknutím na zelené šipky přejdete na sousední mapy.


METAR-TAF: